createdAt,value
2023-02-28T00:01:10.062Z,35.65
2023-02-28T00:03:43.830Z,35.54
2023-02-28T00:06:18.807Z,35.66
2023-02-28T00:08:54.041Z,35.39
2023-02-28T00:11:29.986Z,35.45
2023-02-28T00:14:03.853Z,35.25
2023-02-28T00:16:38.320Z,35.57
2023-02-28T00:19:11.548Z,35.66
2023-02-28T00:21:48.225Z,35.54
2023-02-28T00:24:23.332Z,35.33
2023-02-28T00:26:55.988Z,35.45
2023-02-28T00:29:28.635Z,35.34
2023-02-28T00:32:09.863Z,35.29
2023-02-28T00:34:42.089Z,35.41
2023-02-28T00:37:16.471Z,35.52
2023-02-28T00:39:50.350Z,35.83
2023-02-28T00:42:25.384Z,35.46
2023-02-28T00:45:03.212Z,35.51
2023-02-28T00:47:36.080Z,35.67
2023-02-28T00:50:09.987Z,35.68
2023-02-28T00:52:41.931Z,35.85
2023-02-28T00:55:15.903Z,35.85
2023-02-28T00:57:47.312Z,35.94
2023-02-28T01:00:21.556Z,36.04
2023-02-28T01:02:59.575Z,36.14
2023-02-28T01:05:33.178Z,36.17
2023-02-28T01:08:06.844Z,35.73
2023-02-28T01:10:41.560Z,35.88
2023-02-28T01:13:14.160Z,36.10
2023-02-28T01:15:51.384Z,36.15
2023-02-28T01:18:26.969Z,36.15
2023-02-28T01:20:59.205Z,36.29
2023-02-28T01:23:32.985Z,36.21
2023-02-28T01:26:11.310Z,36.34
2023-02-28T01:28:47.968Z,36.33
2023-02-28T01:31:25.162Z,36.26
2023-02-28T01:33:58.502Z,36.30
2023-02-28T01:36:32.797Z,36.40
2023-02-28T01:39:06.728Z,36.57
2023-02-28T01:41:39.339Z,36.26
2023-02-28T01:44:48.605Z,36.33
2023-02-28T01:47:22.754Z,36.08
2023-02-28T01:49:57.820Z,35.98
2023-02-28T01:52:32.188Z,36.17
2023-02-28T01:55:06.548Z,36.10
2023-02-28T01:57:42.669Z,36.42
2023-02-28T02:00:16.923Z,36.75
2023-02-28T02:02:51.146Z,36.76
2023-02-28T02:05:24.634Z,36.95
2023-02-28T02:08:06.407Z,37.18
2023-02-28T02:10:55.265Z,36.99
2023-02-28T02:13:34.454Z,37.14
2023-02-28T02:16:08.021Z,37.20
2023-02-28T02:18:41.510Z,37.08
2023-02-28T02:21:45.047Z,36.78
2023-02-28T02:24:37.720Z,36.39
2023-02-28T02:27:20.081Z,36.32
2023-02-28T02:30:09.673Z,36.65
2023-02-28T02:32:49.112Z,36.64
2023-02-28T02:35:31.572Z,36.48
2023-02-28T02:38:07.663Z,36.63
2023-02-28T02:40:47.308Z,36.36
2023-02-28T02:43:24.687Z,36.39
2023-02-28T02:46:00.649Z,36.48
2023-02-28T02:48:35.179Z,36.52
2023-02-28T02:51:10.197Z,36.73
2023-02-28T02:53:46.711Z,36.74
2023-02-28T02:56:19.555Z,37.00
2023-02-28T02:58:53.361Z,36.96
2023-02-28T03:01:30.631Z,37.23
2023-02-28T03:04:04.381Z,37.75
2023-02-28T03:06:36.413Z,38.05
2023-02-28T03:09:06.999Z,37.90
2023-02-28T03:11:39.643Z,37.33
2023-02-28T03:14:31.020Z,37.39
2023-02-28T03:17:28.352Z,37.50
2023-02-28T03:20:19.676Z,37.26
2023-02-28T03:23:07.965Z,37.03
2023-02-28T03:25:50.147Z,37.15
2023-02-28T03:28:38.412Z,37.47
2023-02-28T03:31:20.848Z,37.42
2023-02-28T03:34:09.217Z,37.56
2023-02-28T03:36:46.488Z,37.36
2023-02-28T03:42:15.991Z,38.08
2023-02-28T03:44:50.079Z,36.97
2023-02-28T03:47:29.850Z,37.02
2023-02-28T03:50:11.915Z,37.27
2023-02-28T03:52:46.317Z,37.12
2023-02-28T03:55:18.889Z,37.49
2023-02-28T03:58:16.644Z,37.65
2023-02-28T04:00:52.757Z,37.38
2023-02-28T04:03:23.306Z,37.17
2023-02-28T04:05:56.628Z,37.45
2023-02-28T04:08:27.224Z,38.18
2023-02-28T04:11:00.686Z,37.50
2023-02-28T04:13:31.235Z,37.52
2023-02-28T04:16:01.877Z,37.68
2023-02-28T04:18:32.513Z,37.63
2023-02-28T04:21:03.389Z,37.80
2023-02-28T04:23:34.284Z,38.04
2023-02-28T04:26:05.208Z,37.98
2023-02-28T04:28:36.116Z,38.18
2023-02-28T04:31:07.693Z,38.19
2023-02-28T04:33:38.232Z,38.04
2023-02-28T04:36:10.814Z,38.08
2023-02-28T04:38:41.570Z,38.01
2023-02-28T04:41:12.163Z,37.95
2023-02-28T04:43:42.838Z,37.79
2023-02-28T04:46:13.506Z,37.84
2023-02-28T04:48:45.439Z,37.51
2023-02-28T04:51:17.714Z,37.68
2023-02-28T04:53:49.001Z,37.48
2023-02-28T04:56:20.882Z,37.75
2023-02-28T04:58:53.696Z,37.80
2023-02-28T05:01:27.658Z,37.85
2023-02-28T05:04:02.968Z,37.77
2023-02-28T05:06:35.647Z,37.71
2023-02-28T05:09:06.269Z,37.57
2023-02-28T05:11:38.392Z,37.74
2023-02-28T05:14:15.312Z,37.63
2023-02-28T05:16:46.082Z,37.58
2023-02-28T05:19:16.882Z,37.56
2023-02-28T05:21:56.323Z,37.61
2023-02-28T05:24:27.220Z,37.36
2023-02-28T05:26:59.333Z,37.35
2023-02-28T05:29:31.066Z,37.67
2023-02-28T05:32:01.800Z,37.79
2023-02-28T05:34:32.446Z,38.02
2023-02-28T05:37:03.051Z,38.15
2023-02-28T05:39:33.652Z,38.30
2023-02-28T05:42:04.422Z,38.28
2023-02-28T05:44:35.079Z,38.40
2023-02-28T05:47:05.614Z,38.54
2023-02-28T05:49:36.376Z,38.31
2023-02-28T05:52:07.009Z,38.03
2023-02-28T05:54:37.567Z,38.13
2023-02-28T05:57:15.654Z,38.03
2023-02-28T05:59:41.489Z,38.19
2023-02-28T06:02:14.986Z,38.29
2023-02-28T06:04:46.159Z,38.31
2023-02-28T06:07:18.501Z,38.15
2023-02-28T06:09:49.499Z,38.29
2023-02-28T06:12:20.085Z,38.59
2023-02-28T06:14:50.674Z,38.59
2023-02-28T06:17:21.235Z,38.09
2023-02-28T06:19:51.786Z,38.28
2023-02-28T06:22:22.357Z,38.30
2023-02-28T06:24:54.024Z,38.25
2023-02-28T06:27:24.584Z,38.16
2023-02-28T06:29:58.087Z,38.10
2023-02-28T06:32:28.738Z,38.44
2023-02-28T06:34:59.356Z,38.46
2023-02-28T06:37:29.891Z,38.49
2023-02-28T06:40:00.890Z,38.15
2023-02-28T06:42:32.031Z,38.35
2023-02-28T06:45:04.214Z,38.46
2023-02-28T06:47:34.832Z,38.57
2023-02-28T06:50:08.317Z,38.69
2023-02-28T06:52:39.178Z,38.57
2023-02-28T06:55:11.539Z,38.56
2023-02-28T06:57:42.096Z,38.47
2023-02-28T07:00:13.801Z,38.53
2023-02-28T07:02:45.822Z,38.48
2023-02-28T07:05:16.508Z,38.33
2023-02-28T07:07:48.466Z,37.82
2023-02-28T07:10:20.412Z,38.03
2023-02-28T07:12:52.645Z,38.07
2023-02-28T07:15:23.250Z,37.80
2023-02-28T07:17:53.813Z,37.81
2023-02-28T07:20:24.990Z,37.86
2023-02-28T07:22:58.836Z,38.31
2023-02-28T07:25:30.816Z,38.09
2023-02-28T07:28:01.459Z,38.15
2023-02-28T07:30:32.033Z,38.15
2023-02-28T07:33:02.615Z,38.27
2023-02-28T07:35:33.486Z,37.89
2023-02-28T07:38:05.102Z,37.68
2023-02-28T07:40:36.730Z,37.72
2023-02-28T07:43:07.286Z,37.68
2023-02-28T07:45:37.892Z,37.83
2023-02-28T07:48:10.119Z,38.06
2023-02-28T07:50:40.721Z,38.17
2023-02-28T07:53:11.316Z,38.19
2023-02-28T07:55:41.967Z,37.60
2023-02-28T07:58:13.988Z,37.90
2023-02-28T08:00:45.848Z,37.99
2023-02-28T08:03:21.077Z,38.14
2023-02-28T08:05:53.776Z,37.81
2023-02-28T08:08:25.454Z,37.91
2023-02-28T08:10:57.370Z,37.63
2023-02-28T08:13:28.421Z,37.50
2023-02-28T08:15:59.509Z,37.19
2023-02-28T08:18:31.510Z,36.88
2023-02-28T08:21:02.135Z,36.36
2023-02-28T08:23:34.737Z,36.22
2023-02-28T08:26:06.128Z,36.11
2023-02-28T08:28:36.698Z,35.66
2023-02-28T08:31:12.298Z,36.12
2023-02-28T08:33:44.020Z,36.10
2023-02-28T08:36:15.036Z,35.89
2023-02-28T08:38:45.963Z,35.76
2023-02-28T08:41:16.558Z,36.41
2023-02-28T08:43:47.132Z,36.62
2023-02-28T08:46:18.944Z,35.96
2023-02-28T08:48:49.617Z,35.27
2023-02-28T08:51:21.804Z,35.23
2023-02-28T08:53:52.383Z,35.89
2023-02-28T08:56:23.384Z,36.19
2023-02-28T08:58:55.614Z,36.27
2023-02-28T09:01:32.657Z,36.09
2023-02-28T09:04:03.575Z,36.40
2023-02-28T09:06:34.836Z,35.97
2023-02-28T09:09:07.634Z,36.32
2023-02-28T09:11:38.549Z,36.15
2023-02-28T09:14:09.521Z,36.65
2023-02-28T09:16:40.256Z,35.37
2023-02-28T09:19:15.558Z,35.85
2023-02-28T09:21:46.154Z,35.65
2023-02-28T09:24:16.730Z,35.55
2023-02-28T09:27:03.323Z,35.55
2023-02-28T09:29:19.558Z,34.92
2023-02-28T09:31:50.918Z,34.86
2023-02-28T09:34:21.565Z,34.57
2023-02-28T09:36:54.153Z,34.00
2023-02-28T09:39:27.202Z,33.88
2023-02-28T09:41:59.710Z,33.27
2023-02-28T09:44:36.068Z,32.32
2023-02-28T09:47:12.552Z,30.31
2023-02-28T09:49:48.930Z,27.02
2023-02-28T09:52:25.404Z,24.26
2023-02-28T09:54:56.074Z,22.81
2023-02-28T09:57:41.672Z,22.45
2023-02-28T10:00:36.274Z,22.45
2023-02-28T10:03:15.852Z,20.18
2023-02-28T10:05:55.247Z,19.65
2023-02-28T10:08:28.769Z,20.01
2023-02-28T10:11:06.019Z,19.96
2023-02-28T10:13:59.084Z,18.11
2023-02-28T10:16:35.063Z,17.80
2023-02-28T10:19:14.605Z,17.76
2023-02-28T10:21:48.106Z,17.97
2023-02-28T10:24:36.984Z,17.51
2023-02-28T10:27:19.735Z,16.94
2023-02-28T10:29:52.682Z,16.64
2023-02-28T10:32:38.063Z,16.56
2023-02-28T10:35:23.979Z,16.54
2023-02-28T10:38:02.436Z,16.59
2023-02-28T10:40:36.828Z,16.32
2023-02-28T10:43:18.972Z,16.64
2023-02-28T10:46:07.889Z,16.85
2023-02-28T10:49:04.369Z,16.65
2023-02-28T10:51:40.994Z,16.70
2023-02-28T10:54:32.616Z,18.09
2023-02-28T10:57:21.755Z,21.85
2023-02-28T10:59:58.920Z,24.87
2023-02-28T11:02:43.110Z,26.67
2023-02-28T11:05:31.896Z,26.83
2023-02-28T11:08:14.154Z,27.10
2023-02-28T11:10:50.989Z,27.03
2023-02-28T11:13:26.890Z,27.14
2023-02-28T11:16:00.481Z,27.50
2023-02-28T11:18:34.034Z,27.54
2023-02-28T11:21:05.228Z,27.65
2023-02-28T11:23:39.110Z,27.15
2023-02-28T11:26:13.213Z,27.71
2023-02-28T11:28:44.789Z,28.58
2023-02-28T11:31:19.897Z,28.88
2023-02-28T11:33:53.749Z,27.87
2023-02-28T11:36:33.768Z,27.20
2023-02-28T11:39:10.135Z,27.44
2023-02-28T11:41:46.340Z,26.94
2023-02-28T11:44:22.997Z,26.50
2023-02-28T11:47:14.574Z,26.69
2023-02-28T11:49:54.129Z,26.00
2023-02-28T11:52:30.464Z,26.11
2023-02-28T11:55:03.943Z,26.00
2023-02-28T11:57:53.989Z,25.89
2023-02-28T12:00:43.645Z,25.81
2023-02-28T12:03:43.765Z,25.91
2023-02-28T12:06:50.566Z,26.22
2023-02-28T12:09:24.839Z,26.58
2023-02-28T12:12:04.213Z,26.03
2023-02-28T12:14:40.540Z,26.03
2023-02-28T12:17:26.024Z,25.05
2023-02-28T12:20:17.421Z,24.92
2023-02-28T12:23:03.220Z,25.15
2023-02-28T12:25:50.788Z,24.98
2023-02-28T12:28:26.544Z,25.35
2023-02-28T12:31:02.805Z,24.97
2023-02-28T12:33:39.117Z,24.58
2023-02-28T12:36:13.425Z,24.96
2023-02-28T12:38:49.715Z,24.96
2023-02-28T12:41:26.066Z,24.66
2023-02-28T12:43:59.561Z,24.22
2023-02-28T12:46:38.678Z,24.62
2023-02-28T12:49:12.160Z,25.25
2023-02-28T12:51:43.216Z,24.80
2023-02-28T12:54:16.717Z,24.43
2023-02-28T12:56:56.400Z,24.63
2023-02-28T12:59:41.711Z,23.58
2023-02-28T13:02:35.458Z,24.29
2023-02-28T13:05:34.931Z,24.50
2023-02-28T13:08:32.092Z,23.63
2023-02-28T13:11:07.510Z,23.71
2023-02-28T13:13:35.016Z,24.17
2023-02-28T13:16:08.099Z,23.62
2023-02-28T13:18:44.194Z,24.06
2023-02-28T13:21:32.643Z,24.37
2023-02-28T13:24:07.290Z,24.06
2023-02-28T13:26:43.687Z,24.08
2023-02-28T13:29:19.618Z,24.35
2023-02-28T13:32:09.951Z,24.06
2023-02-28T13:34:43.736Z,24.19
2023-02-28T13:37:32.168Z,24.18
2023-02-28T13:40:22.592Z,24.26
2023-02-28T13:42:53.661Z,24.73
2023-02-28T13:45:31.141Z,24.35
2023-02-28T13:48:04.903Z,24.01
2023-02-28T13:50:41.389Z,24.21
2023-02-28T13:53:17.591Z,24.17
2023-02-28T13:56:02.778Z,23.77
2023-02-28T13:58:42.178Z,23.71
2023-02-28T14:01:44.252Z,23.91
2023-02-28T14:04:26.774Z,24.51
2023-02-28T14:06:58.854Z,24.30
2023-02-28T14:09:32.355Z,24.53
2023-02-28T14:12:39.597Z,24.57
2023-02-28T14:15:30.453Z,24.77
2023-02-28T14:18:06.701Z,24.68
2023-02-28T14:20:37.470Z,24.44
2023-02-28T14:23:10.912Z,24.54
2023-02-28T14:25:59.741Z,24.58
2023-02-28T14:28:56.145Z,24.29
2023-02-28T14:31:39.566Z,24.80
2023-02-28T14:34:35.859Z,24.43
2023-02-28T14:37:06.833Z,24.52
2023-02-28T14:39:38.090Z,24.42
2023-02-28T14:42:29.315Z,24.45
2023-02-28T14:45:00.224Z,24.86
2023-02-28T14:47:35.889Z,24.60
2023-02-28T14:50:07.487Z,24.86
2023-02-28T14:52:38.157Z,25.08
2023-02-28T14:55:12.878Z,25.05
2023-02-28T14:57:46.006Z,24.68
2023-02-28T15:00:25.219Z,24.76
2023-02-28T15:02:56.903Z,25.30
2023-02-28T15:05:33.438Z,24.76
2023-02-28T15:08:09.541Z,24.66
2023-02-28T15:10:41.738Z,24.80
2023-02-28T15:13:15.953Z,25.06
2023-02-28T15:16:02.244Z,25.33
2023-02-28T15:18:49.799Z,25.91
2023-02-28T15:21:26.368Z,25.75
2023-02-28T15:24:01.100Z,26.02
2023-02-28T15:26:43.527Z,25.83
2023-02-28T15:29:20.014Z,26.31
2023-02-28T15:31:59.004Z,26.12
2023-02-28T15:34:45.148Z,26.94
2023-02-28T15:37:44.556Z,26.94
2023-02-28T15:40:18.131Z,27.54
2023-02-28T15:43:03.643Z,27.72
2023-02-28T15:45:49.250Z,27.57
2023-02-28T15:48:23.926Z,27.70
2023-02-28T15:50:57.648Z,28.11
2023-02-28T15:53:32.460Z,28.01
2023-02-28T15:56:10.293Z,28.29
2023-02-28T15:58:42.826Z,28.90
2023-02-28T16:01:33.436Z,29.23
2023-02-28T16:04:08.267Z,29.33
2023-02-28T16:06:43.722Z,28.96
2023-02-28T16:09:16.714Z,28.98
2023-02-28T16:11:52.995Z,28.96
2023-02-28T16:14:28.772Z,29.01
2023-02-28T16:17:09.959Z,29.32
2023-02-28T16:19:40.533Z,29.59
2023-02-28T16:22:12.505Z,29.22
2023-02-28T16:24:44.287Z,29.10
2023-02-28T16:27:29.649Z,29.02
2023-02-28T16:30:02.613Z,29.08
2023-02-28T16:32:36.835Z,29.27
2023-02-28T16:35:10.140Z,29.41
2023-02-28T16:37:40.884Z,29.82
2023-02-28T16:40:17.985Z,29.83
2023-02-28T16:42:53.309Z,29.86
2023-02-28T16:45:27.081Z,29.70
2023-02-28T16:47:58.569Z,29.55
2023-02-28T16:50:31.802Z,29.89
2023-02-28T16:53:02.451Z,29.57
2023-02-28T16:55:32.992Z,29.41
2023-02-28T16:58:04.774Z,29.67
2023-02-28T17:00:35.610Z,29.85
2023-02-28T17:03:07.488Z,29.84
2023-02-28T17:05:40.967Z,29.83
2023-02-28T17:08:13.110Z,29.88
2023-02-28T17:10:43.701Z,29.99
2023-02-28T17:13:15.457Z,30.17
2023-02-28T17:15:48.912Z,30.33
2023-02-28T17:18:22.426Z,30.97
2023-02-28T17:20:53.027Z,30.71
2023-02-28T17:23:23.802Z,30.44
2023-02-28T17:25:58.321Z,30.41
2023-02-28T17:28:28.862Z,30.27
2023-02-28T17:30:59.540Z,30.20
2023-02-28T17:33:30.137Z,30.40
2023-02-28T17:36:00.753Z,30.64
2023-02-28T17:38:31.678Z,30.73
2023-02-28T17:41:03.503Z,30.63
2023-02-28T17:43:34.232Z,30.20
2023-02-28T17:46:06.612Z,30.21
2023-02-28T17:48:37.197Z,30.66
2023-02-28T17:51:07.783Z,30.53
2023-02-28T17:53:38.347Z,30.44
2023-02-28T17:56:24.501Z,30.56
2023-02-28T17:58:56.957Z,30.90
2023-02-28T18:01:29.757Z,30.87
2023-02-28T18:04:01.807Z,30.93
2023-02-28T18:06:40.852Z,31.19
2023-02-28T18:09:15.063Z,31.30
2023-02-28T18:11:50.421Z,31.25
2023-02-28T18:14:25.176Z,31.27
2023-02-28T18:17:03.092Z,31.31
2023-02-28T18:19:35.933Z,31.19
2023-02-28T18:22:11.155Z,30.28
2023-02-28T18:24:45.319Z,30.86
2023-02-28T18:27:22.237Z,31.01
2023-02-28T18:29:59.742Z,30.88
2023-02-28T18:32:34.350Z,31.35
2023-02-28T18:35:08.780Z,32.56
2023-02-28T18:37:41.278Z,32.16
2023-02-28T18:40:16.511Z,33.02
2023-02-28T18:42:50.406Z,33.47
2023-02-28T18:45:23.734Z,32.84
2023-02-28T18:48:01.422Z,31.84
2023-02-28T18:50:35.840Z,31.58
2023-02-28T18:53:07.900Z,32.67
2023-02-28T18:55:43.184Z,32.72
2023-02-28T18:58:20.675Z,32.25
2023-02-28T19:00:52.700Z,32.78
2023-02-28T19:03:25.835Z,33.68
2023-02-28T19:06:02.573Z,33.61
2023-02-28T19:08:35.028Z,33.37
2023-02-28T19:11:10.591Z,33.67
2023-02-28T19:13:44.670Z,33.36
2023-02-28T19:16:22.533Z,33.66
2023-02-28T19:18:56.205Z,32.99
2023-02-28T19:21:30.294Z,32.96
2023-02-28T19:24:03.984Z,33.09
2023-02-28T19:26:36.587Z,32.03
2023-02-28T19:29:10.778Z,31.89
2023-02-28T19:31:46.092Z,31.81
2023-02-28T19:34:20.033Z,31.70
2023-02-28T19:36:55.648Z,31.79
2023-02-28T19:39:27.217Z,32.34
2023-02-28T19:41:59.388Z,32.54
2023-02-28T19:44:33.046Z,32.37
2023-02-28T19:47:12.757Z,32.45
2023-02-28T19:49:47.600Z,32.37
2023-02-28T19:52:21.685Z,32.29
2023-02-28T19:54:55.393Z,32.34
2023-02-28T19:57:29.074Z,32.29
2023-02-28T20:00:01.646Z,31.83
2023-02-28T20:02:34.440Z,31.84
2023-02-28T20:05:06.409Z,31.83
2023-02-28T20:07:41.673Z,32.01
2023-02-28T20:10:15.838Z,32.04
2023-02-28T20:12:48.465Z,32.14
2023-02-28T20:15:22.501Z,31.64
2023-02-28T20:17:58.006Z,31.66
2023-02-28T20:20:30.939Z,32.16
2023-02-28T20:23:02.922Z,31.89
2023-02-28T20:25:38.030Z,32.20
2023-02-28T20:28:10.855Z,32.23
2023-02-28T20:30:43.085Z,32.36
2023-02-28T20:33:19.912Z,32.48
2023-02-28T20:35:55.951Z,32.45
2023-02-28T20:38:33.374Z,32.48
2023-02-28T20:41:06.538Z,32.44
2023-02-28T20:43:37.992Z,32.63
2023-02-28T20:46:12.556Z,32.99
2023-02-28T20:48:45.576Z,33.01
2023-02-28T20:51:20.203Z,32.77
2023-02-28T20:53:52.023Z,32.72
2023-02-28T20:56:27.355Z,33.32
2023-02-28T20:58:59.007Z,33.35
2023-02-28T21:01:30.920Z,32.81
2023-02-28T21:04:06.191Z,32.94
2023-02-28T21:06:43.791Z,32.96
2023-02-28T21:09:16.839Z,33.01
2023-02-28T21:11:47.583Z,33.37
2023-02-28T21:14:18.969Z,33.70
2023-02-28T21:16:49.646Z,33.62
2023-02-28T21:19:20.734Z,33.46
2023-02-28T21:21:51.449Z,33.66
2023-02-28T21:24:22.512Z,33.78
2023-02-28T21:26:54.124Z,34.05
2023-02-28T21:29:25.054Z,34.04
2023-02-28T21:31:56.838Z,34.37
2023-02-28T21:34:28.656Z,34.01
2023-02-28T21:36:59.229Z,33.84
2023-02-28T21:39:30.317Z,33.61
2023-02-28T21:42:02.483Z,33.96
2023-02-28T21:44:34.959Z,33.74
2023-02-28T21:47:05.643Z,33.50
2023-02-28T21:49:36.227Z,33.58
2023-02-28T21:52:07.003Z,33.89
2023-02-28T21:54:37.606Z,33.98
2023-02-28T21:57:08.282Z,33.75
2023-02-28T21:59:39.102Z,33.73
2023-02-28T22:02:12.347Z,33.66
2023-02-28T22:04:44.160Z,33.58
2023-02-28T22:07:15.772Z,33.73
2023-02-28T22:09:46.358Z,33.58
2023-02-28T22:12:17.005Z,33.55
2023-02-28T22:14:47.705Z,34.04
2023-02-28T22:17:18.291Z,33.71
2023-02-28T22:19:49.900Z,34.02
2023-02-28T22:22:21.276Z,33.91
2023-02-28T22:24:51.867Z,34.19
2023-02-28T22:27:23.570Z,33.85
2023-02-28T22:29:58.519Z,33.89
2023-02-28T22:32:29.208Z,34.46
2023-02-28T22:34:59.850Z,34.21
2023-02-28T22:37:30.526Z,33.78
2023-02-28T22:40:01.144Z,33.88
2023-02-28T22:42:34.886Z,34.15
2023-02-28T22:45:05.641Z,34.41
2023-02-28T22:47:37.392Z,34.66
2023-02-28T22:50:08.468Z,35.04
2023-02-28T22:52:41.546Z,34.53
2023-02-28T22:55:12.844Z,35.32
2023-02-28T22:57:43.422Z,35.28
2023-02-28T23:00:15.652Z,34.76
2023-02-28T23:02:47.701Z,34.47
2023-02-28T23:05:18.384Z,34.90
2023-02-28T23:07:48.998Z,34.72
2023-02-28T23:10:20.158Z,34.92
2023-02-28T23:13:00.883Z,34.69
2023-02-28T23:15:31.519Z,35.25
2023-02-28T23:18:02.114Z,34.43
2023-02-28T23:20:32.710Z,34.73
2023-02-28T23:23:03.363Z,34.80
2023-02-28T23:25:33.930Z,35.00
2023-02-28T23:28:04.487Z,34.95
2023-02-28T23:30:36.725Z,36.12
2023-02-28T23:33:08.132Z,35.79
2023-02-28T23:35:38.773Z,35.76
2023-02-28T23:38:09.366Z,35.39
2023-02-28T23:40:42.154Z,35.24
2023-02-28T23:43:12.702Z,35.32
2023-02-28T23:45:44.976Z,35.60
2023-02-28T23:48:16.184Z,35.06
2023-02-28T23:50:46.806Z,34.68
2023-02-28T23:53:17.345Z,35.56
2023-02-28T23:55:50.226Z,35.32
2023-02-28T23:58:20.793Z,35.29
